• Join FlightAware (Why Join?)
  • Login
  • US Flag 
12:49AM EDT


 

Airport Tracker/Info


-or-


 

Live Flight TrackerFlight Track Log ✈ GJS3649 ✈ 04-May-2013 ✈ KORD - KORF

Flight Track Log - Related Links

Times and Time Zones

All times are in EDT time to prevent confusion due to time zone crossing. See the GJS3649 flight status page for this flight to view local times or setup timezone preferences in your user account.

Time Position Orientation Groundspeed Altitude Reporting Facility
EDT Latitude Longitude Course Direction KTS MPH feet Rate Location/Type
03:49PM 41.9833 -87.8667 166° South 154 177 2,300  Level Chicago TRACON
03:50PM 41.9333 -87.8333 154° Southeast 232 267 4,700 2,520 Climbing Chicago TRACON
03:51PM 41.8667 -87.8500 191° South 251 289 7,500 2,340 Climbing Chicago TRACON
03:52PM 41.8015 -87.4041 153° Southeast  Level Estimated
03:53PM 41.7045 -87.4538 201° Southwest  Level FlightAware Approximate
03:53PM 41.7747 -87.8414 176° South 263 303 10,800  Level Chicago Center
03:54PM 41.6602 -87.3281 166° South  Level Estimated
03:54PM 41.6936 -87.7828 152° Southeast 275 316 13,300  Level Chicago Center
03:55PM 41.6142 -87.1986 166° South  Level Estimated
03:55PM 41.6061 -87.7514 165° South 319 367 14,700  Level Chicago Center
03:56PM 41.5131 -87.7181 165° South 339 390 16,700 1,800 Climbing Chicago Center
03:57PM 41.4192 -87.6817 164° South 348 400 18,500 1,620 Climbing Chicago Center
03:58PM 41.3214 -87.6456 164° South 356 410 20,100 1,500 Climbing Chicago Center
03:59PM 41.2206 -87.6089 165° South 368 423 21,600 1,380 Climbing Chicago Center
04:00PM 41.1175 -87.5714 165° South 379 436 23,000 1,500 Climbing Chicago Center
04:01PM 41.0125 -87.5319 164° South 388 447 24,700 1,620 Climbing Chicago Center
04:02PM 40.8872 -87.4872 165° South 390 449 26,400 1,500 Climbing Chicago Center
04:03PM 40.7825 -87.4497 165° South 392 451 27,800 1,320 Climbing Chicago Center
04:04PM 40.6767 -87.4114 165° South 394 453 29,200 1,320 Climbing Chicago Center
04:05PM 40.5731 -87.3744 165° South 390 449 30,600 1,260 Climbing Chicago Center
04:06PM 40.4694 -87.3375 165° South 388 447 31,800 1,260 Climbing Chicago Center
04:07PM 40.3636 -87.2531 149° Southeast 388 447 33,200 1,200 Climbing Chicago Center
04:08PM 40.2786 -87.1731 144° Southeast 381 438 34,400 1,020 Climbing Chicago Center
04:09PM 40.1956 -87.0933 144° Southeast 374 430 35,400 960 Climbing Chicago Center
04:10PM 40.1125 -87.0169 145° Southeast 370 426 36,400 840 Climbing Chicago Center
04:11PM 40.0450 -86.9544 145° Southeast 367 422 37,000 600 Climbing Indianapolis Center
04:12PM 39.9836 -86.8514 128° Southeast 365 420 37,500 480 Climbing Indianapolis Center
04:13PM 39.9472 -86.7242 110° East 374 430 38,000 480 Climbing Indianapolis Center
04:14PM 39.9122 -86.5994 110° East 370 426 38,600 420 Climbing Indianapolis Center
04:15PM 39.8683 -86.4497 111° Southeast 370 426 38,900 180 Climbing Indianapolis Center
04:16PM 39.8347 -86.3339 111° Southeast 371 427 39,000  Climbing Indianapolis Center
04:17PM 39.7956 -86.2044 111° Southeast 379 436 39,000  Level Indianapolis Center
04:18PM 39.7508 -86.0561 111° Southeast 388 447 39,000  Level Indianapolis Center
04:19PM 39.7100 -85.9206 111° Southeast 400 460 39,000  Level Indianapolis Center
04:20PM 39.6686 -85.7847 112° Southeast 406 467 39,000  Level Indianapolis Center
04:21PM 39.6264 -85.6467 112° Southeast 412 474 39,000  Level Indianapolis Center
04:22PM 39.5831 -85.5056 112° Southeast 420 483 39,000  Level Indianapolis Center
04:23PM 39.5397 -85.3661 112° Southeast 419 482 39,000  Level Indianapolis Center
04:24PM 39.4978 -85.2292 112° Southeast 412 474 39,000  Level Indianapolis Center
04:25PM 39.4547 -85.0908 112° Southeast 415 478 39,000  Level Indianapolis Center
04:26PM 39.4119 -84.9556 112° Southeast 410 472 39,000  Level Indianapolis Center
04:27PM 39.3625 -84.8019 113° Southeast 406 467 39,000  Level Indianapolis Center
04:28PM 39.3200 -84.6667 112° Southeast 405 466 39,000  Level Indianapolis Center
04:29PM 39.2772 -84.5322 112° Southeast 403 464 39,000  Level Indianapolis Center
04:30PM 39.2347 -84.4003 113° Southeast 398 458 39,000  Level Indianapolis Center
04:32PM 39.1917 -84.2667 113° Southeast 399 459 39,000  Level Indianapolis Center
04:33PM 39.1494 -84.1369 113° Southeast 393 452 39,000  Level Indianapolis Center
04:34PM 39.1067 -84.0036 112° Southeast 398 458 39,000  Level Indianapolis Center
04:35PM 39.0628 -83.8706 113° Southeast 399 459 39,000  Level Indianapolis Center
04:36PM 39.0125 -83.7147 113° Southeast 401 461 39,000  Level Indianapolis Center
04:37PM 38.9692 -83.5822 113° Southeast 401 461 39,000  Level Indianapolis Center
04:38PM 38.9242 -83.4500 114° Southeast 401 461 39,000  Level Indianapolis Center
04:39PM 38.8811 -83.3192 113° Southeast 397 457 39,000  Level Indianapolis Center
04:41PM 38.7914 -83.0528 113° Southeast 399 459 39,000  Level Indianapolis Center
04:42PM 38.7483 -82.9222 113° Southeast 398 458 39,000  Level Indianapolis Center
04:43PM 38.7039 -82.7939 114° Southeast 397 457 39,000  Level Indianapolis Center
04:44PM 38.6603 -82.6644 113° Southeast 396 456 39,000  Level Indianapolis Center
04:45PM 38.6106 -82.5203 114° Southeast 402 463 39,000 -420 Level Indianapolis Center
04:46PM 38.5706 -82.4033 114° Southeast 401 461 38,200 -900 Descending Indianapolis Center
04:47PM 38.5169 -82.2481 114° Southeast 400 460 37,200 -840 Descending Indianapolis Center
04:48PM 38.4733 -82.1214 114° Southeast 394 453 36,500 -780 Descending Indianapolis Center
04:49PM 38.4278 -81.9947 115° Southeast 394 453 35,700 -840 Descending Indianapolis Center
04:50PM 38.3831 -81.8656 114° Southeast 400 460 34,900 -840 Descending Indianapolis Center
04:51PM 38.3439 -81.7339 111° Southeast 402 463 34,100 -840 Descending Indianapolis Center
04:52PM 38.3217 -81.5900 101° East 416 479 33,300 -600 Descending Indianapolis Center
04:53PM 38.2986 -81.4431 101° East 426 490 33,000 -180 Descending Indianapolis Center
04:54PM 38.2694 -81.2650 102° East 432 497 33,000  Level Indianapolis Center
04:55PM 38.2456 -81.1167 102° East 432 497 33,000  Level Indianapolis Center
04:56PM 38.2278 -81.0186 103° East 433 498 33,000  Level Washington Center
04:57PM 38.2067 -80.8822 101° East 433 498 33,000  Level Washington Center
04:58PM 38.1819 -80.7350 102° East 433 498 33,000 -60 Level Washington Center
04:59PM 38.1567 -80.5933 103° East 428 493 32,900 -300 Descending Washington Center
05:00PM 38.1333 -80.4467 101° East 417 480 32,500 -1,080 Descending Washington Center
05:01PM 38.1083 -80.2894 101° East 417 480 30,800 -1,380 Descending Washington Center
05:02PM 38.0847 -80.1428 102° East 417 480 29,800 -900 Descending Washington Center
05:03PM 38.0569 -79.9933 103° East 417 480 29,000 -1,080 Descending Washington Center
05:04PM 38.0331 -79.8494 102° East 417 480 27,700 -1,020 Descending Washington Center
05:05PM 38.0089 -79.7083 102° East 417 480 27,000 -360 Descending Washington Center
05:06PM 37.9858 -79.5833 103° East 417 480 27,000  Level Washington Center
05:07PM 37.9636 -79.4400 101° East 417 480 27,000  Level Washington Center
05:08PM 37.9386 -79.3017 103° East 412 474 27,000  Level Washington Center
05:09PM 37.9136 -79.1608 103° East 412 474 27,000 -300 Level Washington Center
05:10PM 37.8803 -79.0225 107° East 412 474 26,500 -960 Descending Washington Center
05:11PM 37.8364 -78.8708 110° East 419 482 25,100 -1,320 Descending Washington Center
05:12PM 37.7981 -78.7428 111° Southeast 407 468 23,900 -1,200 Descending Washington Center
05:13PM 37.7617 -78.6178 110° East 394 453 22,700 -1,200 Descending Washington Center
05:14PM 37.7272 -78.4958 110° East 377 434 21,500 -900 Descending Washington Center
05:15PM 37.6925 -78.3736 110° East 372 428 21,000 -300 Descending Washington Center
05:16PM 37.6597 -78.2622 110° East 372 428 21,000  Level Washington Center
05:17PM 37.6225 -78.1456 112° Southeast 372 428 21,000 -60 Level Washington Center
05:18PM 37.5856 -78.0264 111° Southeast 367 422 20,900 -600 Descending Washington Center
05:19PM 37.5522 -77.9100 110° East 367 422 19,900 -1,020 Descending Washington Center
05:20PM 37.5253 -77.7942 106° East 356 410 18,900 -1,020 Descending Washington Center
05:21PM 37.5169 -77.6708 95° East 344 396 17,900 -900 Descending Washington Center
05:22PM 37.5089 -77.5422 94° East 349 402 17,100 -900 Descending Washington Center
05:23PM 37.5003 -77.4217 95° East 349 402 16,100 -840 Descending Washington Center
05:24PM 37.4914 -77.3061 96° East 349 402 15,500 -900 Descending Washington Center
05:25PM 37.4828 -77.1883 95° East 349 402 14,400 -780 Descending Washington Center
05:26PM 37.4739 -77.0703 95° East 349 402 14,000 -240 Descending Washington Center
05:27PM 37.4647 -76.9578 96° East 345 397 14,000  Level Washington Center
05:28PM 37.4578 -76.8344 94° East 342 394 14,000  Level Washington Center
05:29PM 37.4483 -76.7194 96° East 337 388 14,000  Level Washington Center
05:29PM 37.4444 -76.6828 98° East 325 374 14,000  Level Washington Center
05:30PM 37.4389 -76.6014 95° East 332 382 14,000  Level Washington Center
05:30PM 37.4331 -76.5672 102° East 332 382 14,000  Level Washington Center
05:31PM 37.4275 -76.4889 95° East 332 382 14,000  Level Washington Center
05:31PM 37.4194 -76.4339 100° East 334 384 14,000 -240 Level Washington Center
05:32PM 37.3925 -76.3864 126° Southeast 332 382 13,800 -1,140 Descending Washington Center
05:32PM 37.3636 -76.3706 156° South 301 346 13,000 -1,980 Descending Washington Center
05:33PM 37.2803 -76.3383 163° South 295 339 11,200 -1,620 Descending Washington Center
05:34PM 37.2386 -76.3197 160° South 272 313 10,300 -1,680 Descending Washington Center
05:34PM 37.2033 -76.3142 173° South 283 326 9,500 -1,740 Descending Washington Center
05:35PM 37.1636 -76.2956 160° South 277 319 8,600 -1,620 Descending Washington Center
05:35PM 37.1242 -76.2875 171° South 273 314 7,700 -1,680 Descending Washington Center
05:36PM 37.0908 -76.2714 159° South 277 319 6,900 -1,560 Descending Washington Center
05:37PM 37.0014 -76.2447 167° South 262 302 5,000 -960 Descending Washington Center
05:38PM 36.9469 -76.2572 190° South 228 262 5,000 -780 Level Washington Center
05:39PM 36.8839 -76.3294 223° Southwest 236 272 3,300 -840 Descending Washington Center
05:40PM 36.8294 -76.3886 221° Southwest 230 265 3,000 -300 Descending Washington Center
05:41PM 36.7836 -76.3828 174° South 177 204 2,800 -480 Descending Washington Center
05:42PM 36.7714 -76.3361 108° East 150 173 2,100 -420 Descending Washington Center
05:43PM 36.7881 -76.3050 56° Northeast 166 191 2,100 -300 Level Washington Center
05:44PM 36.8258 -76.2717 35° Northeast 144 166 1,600 -600 Descending Washington Center
05:45PM 36.8489 -76.2486 39° Northeast 106 122 1,000 -660 Descending Washington Center